createdAt,value
2019-05-03T00:00:13.860Z,99.90
2019-05-03T00:02:47.064Z,99.90
2019-05-03T00:05:32.318Z,99.90
2019-05-03T00:08:02.241Z,99.90
2019-05-03T00:10:31.779Z,99.90
2019-05-03T00:13:01.901Z,99.90
2019-05-03T00:15:34.911Z,99.90
2019-05-03T00:18:04.707Z,99.90
2019-05-03T00:20:33.132Z,99.90
2019-05-03T00:23:02.955Z,99.90
2019-05-03T00:25:32.693Z,99.90
2019-05-03T00:28:03.268Z,99.90
2019-05-03T00:30:32.124Z,99.90
2019-05-03T00:33:02.724Z,99.90
2019-05-03T00:35:49.261Z,99.90
2019-05-03T00:38:21.807Z,99.90
2019-05-03T00:40:52.748Z,99.90
2019-05-03T00:43:22.283Z,99.90
2019-05-03T00:45:51.667Z,99.70
2019-05-03T00:48:21.953Z,99.90
2019-05-03T00:50:51.787Z,99.90
2019-05-03T00:53:22.225Z,99.90
2019-05-03T00:55:52.470Z,99.90
2019-05-03T00:58:22.600Z,99.90
2019-05-03T01:00:52.470Z,99.90
2019-05-03T01:03:21.973Z,99.90
2019-05-03T01:05:52.752Z,99.90
2019-05-03T01:08:22.179Z,99.90
2019-05-03T01:11:12.858Z,99.90
2019-05-03T01:13:42.321Z,99.90
2019-05-03T01:16:12.797Z,99.90
2019-05-03T01:18:41.828Z,99.60
2019-05-03T01:21:11.718Z,99.20
2019-05-03T01:23:41.963Z,99.10
2019-05-03T01:26:11.913Z,98.50
2019-05-03T01:28:42.611Z,98.40
2019-05-03T01:31:11.965Z,97.80
2019-05-03T01:33:42.514Z,97.30
2019-05-03T01:36:12.027Z,97.30
2019-05-03T01:38:42.385Z,97.60
2019-05-03T01:41:12.319Z,97.50
2019-05-03T01:43:41.975Z,97.80
2019-05-03T01:46:11.969Z,97.50
2019-05-03T01:48:52.205Z,97.30
2019-05-03T01:51:30.369Z,96.80
2019-05-03T01:53:58.817Z,97.10
2019-05-03T01:56:27.550Z,97.10
2019-05-03T01:58:55.977Z,97.00
2019-05-03T02:01:32.613Z,97.60
2019-05-03T02:04:02.972Z,97.90
2019-05-03T02:06:32.757Z,97.70
2019-05-03T02:09:02.358Z,98.60
2019-05-03T02:11:32.582Z,98.20
2019-05-03T02:14:01.832Z,98.20
2019-05-03T02:16:32.392Z,97.90
2019-05-03T02:19:02.445Z,98.00
2019-05-03T02:21:32.192Z,97.80
2019-05-03T02:24:02.606Z,98.20
2019-05-03T02:26:31.843Z,98.40
2019-05-03T02:29:01.870Z,98.80
2019-05-03T02:31:32.748Z,99.70
2019-05-03T02:34:03.253Z,99.60
2019-05-03T02:36:33.743Z,99.90
2019-05-03T02:39:02.843Z,99.90
2019-05-03T02:41:31.599Z,99.90
2019-05-03T02:44:00.034Z,99.90
2019-05-03T02:46:35.855Z,99.90
2019-05-03T02:49:11.417Z,99.90
2019-05-03T02:51:39.863Z,99.90
2019-05-03T02:54:11.230Z,99.90
2019-05-03T02:56:40.698Z,99.90
2019-05-03T02:59:09.134Z,99.90
2019-05-03T03:01:38.215Z,99.90
2019-05-03T03:04:07.025Z,99.90
2019-05-03T03:06:37.349Z,99.90
2019-05-03T03:09:06.742Z,99.90
2019-05-03T03:11:38.247Z,99.90
2019-05-03T03:14:10.340Z,99.90
2019-05-03T03:16:40.971Z,99.90
2019-05-03T03:19:11.242Z,99.90
2019-05-03T03:21:46.645Z,99.90
2019-05-03T03:24:18.154Z,99.90
2019-05-03T03:26:49.695Z,99.90
2019-05-03T03:29:24.981Z,99.90
2019-05-03T03:31:57.912Z,99.90
2019-05-03T03:34:31.121Z,99.90
2019-05-03T03:37:04.742Z,99.90
2019-05-03T03:39:29.412Z,99.90
2019-05-03T03:41:59.621Z,99.90
2019-05-03T03:44:30.521Z,99.90
2019-05-03T03:46:59.782Z,99.90
2019-05-03T03:49:29.367Z,99.90
2019-05-03T03:52:00.662Z,99.90
2019-05-03T03:54:35.458Z,99.90
2019-05-03T03:57:07.934Z,99.90
2019-05-03T03:59:36.380Z,99.90
2019-05-03T04:02:05.931Z,99.90
2019-05-03T04:04:35.907Z,99.90
2019-05-03T04:07:06.573Z,99.90
2019-05-03T04:09:36.360Z,99.90
2019-05-03T04:12:06.288Z,99.90
2019-05-03T04:14:40.447Z,99.90
2019-05-03T04:17:09.758Z,99.90
2019-05-03T04:19:40.697Z,99.90
2019-05-03T04:22:09.293Z,99.90
2019-05-03T04:24:38.786Z,99.90
2019-05-03T04:27:18.648Z,99.90
2019-05-03T04:29:40.342Z,99.90
2019-05-03T04:32:09.714Z,99.90
2019-05-03T04:34:38.231Z,99.90
2019-05-03T04:37:07.317Z,99.90
2019-05-03T04:39:36.208Z,99.90
2019-05-03T04:42:06.657Z,99.90
2019-05-03T04:44:36.014Z,99.90
2019-05-03T04:47:06.803Z,99.70
2019-05-03T04:49:36.173Z,99.20
2019-05-03T04:52:05.774Z,98.80
2019-05-03T04:54:56.008Z,98.00
2019-05-03T04:57:36.461Z,97.30
2019-05-03T04:59:56.339Z,96.20
2019-05-03T05:02:26.435Z,95.10
2019-05-03T05:04:55.706Z,94.70
2019-05-03T05:07:26.295Z,93.20
2019-05-03T05:09:56.133Z,91.40
2019-05-03T05:12:25.600Z,89.60
2019-05-03T05:14:56.404Z,88.90
2019-05-03T05:17:30.561Z,88.70
2019-05-03T05:20:36.444Z,89.40
2019-05-03T05:23:05.253Z,86.70
2019-05-03T05:25:38.454Z,85.80
2019-05-03T05:28:15.045Z,84.20
2019-05-03T05:30:44.418Z,84.60
2019-05-03T05:33:22.195Z,86.40
2019-05-03T05:35:51.701Z,86.80
2019-05-03T05:38:20.577Z,85.60
2019-05-03T05:40:49.021Z,82.60
2019-05-03T05:43:17.749Z,83.30
2019-05-03T05:45:46.547Z,84.50
2019-05-03T05:48:25.859Z,86.40
2019-05-03T05:51:16.132Z,86.70
2019-05-03T05:53:44.871Z,86.00
2019-05-03T05:56:27.063Z,83.00
2019-05-03T05:59:14.692Z,80.00
2019-05-03T06:01:47.150Z,80.70
2019-05-03T06:04:17.882Z,77.50
2019-05-03T06:06:48.313Z,78.00
2019-05-03T06:09:35.021Z,76.80
2019-05-03T06:12:05.175Z,76.20
2019-05-03T06:14:35.242Z,77.20
2019-05-03T06:17:05.537Z,77.40
2019-05-03T06:19:35.691Z,75.20
2019-05-03T06:24:47.642Z,73.90
2019-05-03T06:27:27.028Z,75.80
2019-05-03T06:29:57.392Z,74.60
2019-05-03T06:32:34.677Z,72.20
2019-05-03T06:35:04.962Z,71.40
2019-05-03T06:37:45.674Z,71.20
2019-05-03T06:40:14.991Z,71.20
2019-05-03T06:42:54.100Z,70.30
2019-05-03T06:45:17.461Z,68.00
2019-05-03T06:47:50.000Z,70.00
2019-05-03T06:50:19.583Z,69.60
2019-05-03T06:52:46.964Z,70.40
2019-05-03T06:55:15.401Z,71.00
2019-05-03T06:57:49.336Z,69.20
2019-05-03T07:00:24.786Z,66.60
2019-05-03T07:02:57.745Z,66.90
2019-05-03T07:08:31.961Z,67.00
2019-05-03T07:11:02.156Z,74.60
2019-05-03T07:13:30.685Z,76.80
2019-05-03T07:15:59.133Z,79.00
2019-05-03T07:18:27.622Z,79.50
2019-05-03T07:20:59.073Z,79.60
2019-05-03T07:23:27.921Z,81.10
2019-05-03T07:25:56.674Z,79.00
2019-05-03T07:28:25.138Z,75.10
2019-05-03T07:30:54.444Z,74.30
2019-05-03T07:33:31.768Z,75.30
2019-05-03T07:36:02.139Z,77.80
2019-05-03T07:38:30.978Z,76.40
2019-05-03T07:40:59.763Z,76.40
2019-05-03T07:43:28.564Z,75.10
2019-05-03T07:45:57.354Z,74.40
2019-05-03T07:48:26.168Z,73.40
2019-05-03T07:50:54.781Z,72.10
2019-05-03T07:53:25.404Z,70.60
2019-05-03T07:56:01.708Z,69.90
2019-05-03T07:58:32.069Z,68.00
2019-05-03T08:01:07.063Z,63.60
2019-05-03T08:03:34.847Z,61.60
2019-05-03T08:06:04.791Z,66.10
2019-05-03T08:08:35.238Z,66.00
2019-05-03T08:11:05.322Z,68.10
2019-05-03T08:13:35.609Z,66.80
2019-05-03T08:16:05.873Z,63.10
2019-05-03T08:18:35.491Z,64.50
2019-05-03T08:21:05.547Z,66.70
2019-05-03T08:23:35.287Z,65.60
2019-05-03T08:26:05.812Z,65.80
2019-05-03T08:28:34.866Z,62.80
2019-05-03T08:31:20.217Z,58.10
2019-05-03T08:33:56.199Z,57.80
2019-05-03T08:36:24.843Z,60.40
2019-05-03T08:38:53.366Z,64.10
2019-05-03T08:41:24.711Z,65.80
2019-05-03T08:43:55.006Z,67.80
2019-05-03T08:46:25.355Z,68.20
2019-05-03T08:48:54.812Z,65.50
2019-05-03T08:51:24.961Z,64.90
2019-05-03T08:53:55.772Z,65.40
2019-05-03T08:56:24.685Z,66.00
2019-05-03T08:58:55.318Z,65.90
2019-05-03T09:01:25.121Z,66.40
2019-05-03T09:03:55.634Z,67.40
2019-05-03T09:06:24.829Z,67.90
2019-05-03T09:08:56.883Z,67.40
2019-05-03T09:11:31.841Z,67.70
2019-05-03T09:14:01.579Z,67.80
2019-05-03T09:16:30.090Z,69.50
2019-05-03T09:18:58.522Z,70.70
2019-05-03T09:21:26.993Z,72.80
2019-05-03T09:23:55.636Z,73.60
2019-05-03T09:26:28.837Z,75.30
2019-05-03T09:28:55.738Z,75.60
2019-05-03T09:31:24.759Z,74.80
2019-05-03T09:33:54.801Z,75.60
2019-05-03T09:36:25.279Z,73.00
2019-05-03T09:38:54.973Z,73.10
2019-05-03T09:41:25.538Z,70.00
2019-05-03T09:43:55.462Z,66.10
2019-05-03T09:46:26.456Z,61.50
2019-05-03T09:49:09.436Z,62.00
2019-05-03T09:51:26.139Z,61.00
2019-05-03T09:53:59.191Z,61.60
2019-05-03T09:56:55.398Z,60.10
2019-05-03T09:59:16.953Z,60.30
2019-05-03T10:01:46.409Z,60.00
2019-05-03T10:04:17.907Z,63.00
2019-05-03T10:06:45.395Z,65.70
2019-05-03T10:09:15.412Z,64.30
2019-05-03T10:11:45.909Z,61.60
2019-05-03T10:14:15.565Z,58.00
2019-05-03T10:17:02.234Z,58.70
2019-05-03T10:19:39.632Z,59.70
2019-05-03T10:22:01.201Z,60.60
2019-05-03T10:24:30.683Z,62.50
2019-05-03T10:26:59.189Z,62.50
2019-05-03T10:29:28.030Z,63.40
2019-05-03T10:37:54.898Z,61.70
2019-05-03T10:40:27.326Z,61.60
2019-05-03T10:42:56.023Z,54.30
2019-05-03T10:45:27.823Z,55.50
2019-05-03T10:47:54.712Z,53.10
2019-05-03T10:50:25.258Z,54.00
2019-05-03T10:53:05.277Z,52.40
2019-05-03T10:55:35.792Z,52.90
2019-05-03T10:58:08.750Z,54.50
2019-05-03T11:00:45.068Z,56.90
2019-05-03T11:03:12.590Z,58.20
2019-05-03T11:05:41.383Z,58.80
2019-05-03T11:08:09.825Z,58.60
2019-05-03T11:10:38.261Z,60.10
2019-05-03T11:13:06.717Z,60.90
2019-05-03T11:15:35.428Z,59.80
2019-05-03T11:18:05.627Z,60.20
2019-05-03T11:20:35.910Z,59.80
2019-05-03T11:23:06.332Z,58.50
2019-05-03T11:25:35.940Z,57.70
2019-05-03T11:28:10.140Z,58.10
2019-05-03T11:30:38.653Z,58.40
2019-05-03T11:33:09.043Z,58.60
2019-05-03T11:38:25.248Z,58.70
2019-05-03T11:40:55.811Z,59.50
2019-05-03T11:43:24.704Z,57.50
2019-05-03T11:45:55.293Z,57.50
2019-05-03T11:48:25.249Z,54.30
2019-05-03T11:50:54.649Z,54.50
2019-05-03T11:53:25.040Z,54.60
2019-05-03T11:55:55.159Z,55.80
2019-05-03T11:58:27.064Z,57.30
2019-05-03T12:01:11.627Z,58.90
2019-05-03T12:03:38.050Z,60.40
2019-05-03T12:06:06.656Z,63.00
2019-05-03T12:08:35.556Z,64.20
2019-05-03T12:11:05.757Z,64.20
2019-05-03T12:13:34.303Z,64.00
2019-05-03T12:16:14.553Z,64.00
2019-05-03T12:18:47.692Z,64.60
2019-05-03T12:21:07.418Z,65.00
2019-05-03T12:23:36.367Z,61.40
2019-05-03T12:26:10.859Z,60.50
2019-05-03T12:28:35.377Z,58.90
2019-05-03T12:31:04.912Z,57.80
2019-05-03T12:33:35.458Z,56.00
2019-05-03T12:36:05.531Z,55.90
2019-05-03T12:38:34.943Z,55.60
2019-05-03T12:41:05.627Z,57.20
2019-05-03T12:43:34.585Z,59.40
2019-05-03T12:46:05.142Z,61.10
2019-05-03T12:48:35.393Z,62.70
2019-05-03T12:51:06.322Z,61.30
2019-05-03T12:53:35.359Z,61.30
2019-05-03T12:56:09.900Z,59.30
2019-05-03T12:58:45.884Z,53.70
2019-05-03T13:01:16.222Z,52.30
2019-05-03T13:03:46.730Z,52.30
2019-05-03T13:06:15.165Z,50.70
2019-05-03T13:08:45.645Z,49.40
2019-05-03T13:11:14.262Z,51.30
2019-05-03T13:13:44.575Z,52.10
2019-05-03T13:16:17.124Z,51.90
2019-05-03T13:18:45.912Z,52.60
2019-05-03T13:21:14.442Z,54.00
2019-05-03T13:23:45.182Z,55.40
2019-05-03T13:26:14.846Z,56.30
2019-05-03T13:28:45.706Z,57.50
2019-05-03T13:31:16.174Z,58.40
2019-05-03T13:33:45.486Z,58.80
2019-05-03T13:36:15.179Z,58.70
2019-05-03T13:38:45.239Z,59.70
2019-05-03T13:41:14.041Z,59.40
2019-05-03T13:43:42.760Z,60.00
2019-05-03T13:46:11.561Z,59.70
2019-05-03T13:48:45.435Z,60.00
2019-05-03T13:51:10.189Z,60.20
2019-05-03T13:53:38.623Z,60.00
2019-05-03T13:56:07.074Z,61.20
2019-05-03T13:58:35.947Z,62.00
2019-05-03T14:01:05.485Z,63.20
2019-05-03T14:03:35.162Z,62.50
2019-05-03T14:06:08.084Z,62.80
2019-05-03T14:08:34.993Z,63.60
2019-05-03T14:11:05.008Z,64.50
2019-05-03T14:13:35.490Z,64.80
2019-05-03T14:16:05.515Z,64.40
2019-05-03T14:18:35.321Z,64.40
2019-05-03T14:21:17.593Z,63.60
2019-05-03T14:23:59.681Z,64.60
2019-05-03T14:26:28.449Z,63.40
2019-05-03T14:28:57.242Z,61.70
2019-05-03T14:31:25.715Z,61.60
2019-05-03T14:33:55.879Z,63.10
2019-05-03T14:36:44.997Z,63.90
2019-05-03T14:39:15.051Z,64.20
2019-05-03T14:41:46.547Z,63.20
2019-05-03T14:44:17.703Z,64.30
2019-05-03T14:46:45.838Z,64.00
2019-05-03T14:49:14.863Z,65.30
2019-05-03T14:51:45.380Z,65.50
2019-05-03T14:54:14.526Z,66.60
2019-05-03T14:56:57.262Z,66.60
2019-05-03T14:59:29.806Z,67.00
2019-05-03T15:04:51.866Z,66.90
2019-05-03T15:07:20.646Z,66.20
2019-05-03T15:09:49.346Z,65.40
2019-05-03T15:12:18.146Z,66.30
2019-05-03T15:14:46.577Z,66.70
2019-05-03T15:17:15.318Z,66.30
2019-05-03T15:19:45.337Z,67.80
2019-05-03T15:22:14.682Z,67.20
2019-05-03T15:24:45.088Z,66.80
2019-05-03T15:27:13.977Z,67.50
2019-05-03T15:29:42.479Z,67.20
2019-05-03T15:32:15.501Z,66.70
2019-05-03T15:34:44.608Z,67.20
2019-05-03T15:37:14.869Z,67.60
2019-05-03T15:39:45.119Z,65.30
2019-05-03T15:42:14.629Z,65.70
2019-05-03T15:44:58.066Z,65.90
2019-05-03T15:47:30.170Z,65.50
2019-05-03T15:49:58.619Z,62.50
2019-05-03T15:52:27.373Z,64.70
2019-05-03T15:54:59.026Z,63.60
2019-05-03T15:57:27.470Z,62.60
2019-05-03T15:59:55.918Z,63.30
2019-05-03T16:02:24.702Z,62.20
2019-05-03T16:04:57.206Z,62.90
2019-05-03T16:07:25.078Z,62.60
2019-05-03T16:09:55.225Z,61.10
2019-05-03T16:12:23.966Z,58.50
2019-05-03T16:14:55.094Z,57.90
2019-05-03T16:17:24.485Z,58.00
2019-05-03T16:19:55.752Z,57.10
2019-05-03T16:22:25.387Z,55.70
2019-05-03T16:24:55.693Z,57.30
2019-05-03T16:27:28.334Z,56.60
2019-05-03T16:29:56.766Z,57.20
2019-05-03T16:32:25.213Z,57.30
2019-05-03T16:34:54.996Z,57.60
2019-05-03T16:37:25.465Z,57.90
2019-05-03T16:39:54.770Z,58.90
2019-05-03T16:42:24.638Z,59.30
2019-05-03T16:44:54.979Z,58.90
2019-05-03T16:47:24.967Z,58.60
2019-05-03T16:50:14.482Z,58.40
2019-05-03T16:52:45.457Z,59.20
2019-05-03T16:55:16.148Z,60.80
2019-05-03T16:57:44.850Z,59.50
2019-05-03T17:00:17.895Z,60.90
2019-05-03T17:02:46.477Z,61.70
2019-05-03T17:05:29.069Z,62.10
2019-05-03T17:08:16.077Z,63.30
2019-05-03T17:10:49.069Z,64.50
2019-05-03T17:13:17.853Z,65.00
2019-05-03T17:15:46.293Z,64.90
2019-05-03T17:18:17.292Z,64.70
2019-05-03T17:20:45.865Z,65.40
2019-05-03T17:23:15.485Z,64.50
2019-05-03T17:25:44.473Z,64.30
2019-05-03T17:28:13.374Z,64.50
2019-05-03T17:30:41.805Z,64.70
2019-05-03T17:33:10.250Z,65.20
2019-05-03T17:35:38.682Z,64.40
2019-05-03T17:38:07.417Z,66.20
2019-05-03T17:40:47.059Z,65.80
2019-05-03T17:43:17.148Z,66.30
2019-05-03T17:45:54.890Z,66.80
2019-05-03T17:48:23.973Z,66.90
2019-05-03T17:50:52.417Z,67.10
2019-05-03T17:53:37.564Z,68.80
2019-05-03T17:56:10.602Z,71.20
2019-05-03T17:58:44.362Z,78.70
2019-05-03T18:01:30.851Z,82.60
2019-05-03T18:04:13.169Z,86.40
2019-05-03T18:06:59.730Z,86.40
2019-05-03T18:09:30.143Z,88.80
2019-05-03T18:12:06.207Z,89.50
2019-05-03T18:14:34.690Z,90.10
2019-05-03T18:17:05.781Z,90.20
2019-05-03T18:19:34.430Z,91.00
2019-05-03T18:22:05.015Z,90.40
2019-05-03T18:24:35.229Z,91.50
2019-05-03T18:27:04.585Z,91.00
2019-05-03T18:29:34.590Z,90.60
2019-05-03T18:32:05.340Z,91.10
2019-05-03T18:34:33.826Z,91.00
2019-05-03T18:37:02.267Z,90.90
2019-05-03T18:39:30.714Z,91.20
2019-05-03T18:41:59.133Z,91.30
2019-05-03T18:44:47.710Z,91.30
2019-05-03T18:47:17.829Z,91.00
2019-05-03T18:49:46.277Z,91.20
2019-05-03T18:52:15.042Z,91.50
2019-05-03T18:54:44.494Z,91.80
2019-05-03T18:57:15.504Z,91.80
2019-05-03T18:59:44.972Z,91.80
2019-05-03T19:02:14.943Z,91.20
2019-05-03T19:04:45.344Z,90.70
2019-05-03T19:07:21.286Z,91.10
2019-05-03T19:10:00.625Z,90.40
2019-05-03T19:12:40.154Z,90.70
2019-05-03T19:15:10.074Z,91.00
2019-05-03T19:17:46.129Z,90.40
2019-05-03T19:20:16.669Z,90.40
2019-05-03T19:22:45.097Z,90.10
2019-05-03T19:25:14.867Z,90.00
2019-05-03T19:27:45.073Z,90.30
2019-05-03T19:30:14.885Z,90.30
2019-05-03T19:32:45.053Z,90.20
2019-05-03T19:35:15.679Z,90.70
2019-05-03T19:37:46.399Z,90.00
2019-05-03T19:40:15.097Z,89.90
2019-05-03T19:42:44.727Z,90.20
2019-05-03T19:45:15.123Z,90.40
2019-05-03T19:47:44.777Z,90.60
2019-05-03T19:50:15.518Z,90.60
2019-05-03T19:53:05.144Z,90.60
2019-05-03T19:55:34.138Z,90.60
2019-05-03T19:58:05.467Z,90.90
2019-05-03T20:00:35.361Z,90.80
2019-05-03T20:03:08.081Z,91.00
2019-05-03T20:05:40.665Z,90.50
2019-05-03T20:08:15.341Z,91.00
2019-05-03T20:11:15.004Z,91.10
2019-05-03T20:13:45.114Z,91.10
2019-05-03T20:16:15.364Z,90.60
2019-05-03T20:18:45.319Z,90.80
2019-05-03T20:21:14.948Z,90.60
2019-05-03T20:23:46.602Z,90.70
2019-05-03T20:26:14.992Z,90.60
2019-05-03T20:28:44.788Z,90.60
2019-05-03T20:31:14.026Z,90.60
2019-05-03T20:33:42.845Z,90.30
2019-05-03T20:36:11.284Z,90.40
2019-05-03T20:38:39.721Z,90.50
2019-05-03T20:41:08.501Z,90.50
2019-05-03T20:43:44.750Z,90.20
2019-05-03T20:46:25.680Z,90.50
2019-05-03T20:48:55.941Z,90.50
2019-05-03T20:51:25.168Z,90.50
2019-05-03T20:53:55.345Z,90.60
2019-05-03T20:56:24.594Z,91.00
2019-05-03T20:58:54.897Z,91.10
2019-05-03T21:01:25.559Z,91.20
2019-05-03T21:03:54.363Z,91.30
2019-05-03T21:06:34.781Z,91.60
2019-05-03T21:08:56.379Z,91.40
2019-05-03T21:11:25.201Z,91.40
2019-05-03T21:13:54.107Z,91.30
2019-05-03T21:16:45.099Z,91.20
2019-05-03T21:19:15.852Z,90.90
2019-05-03T21:21:46.090Z,90.90
2019-05-03T21:24:28.470Z,91.10
2019-05-03T21:26:56.909Z,91.10
2019-05-03T21:29:25.329Z,91.40
2019-05-03T21:31:55.271Z,91.40
2019-05-03T21:34:25.157Z,91.40
2019-05-03T21:36:54.495Z,91.60
2019-05-03T21:39:24.723Z,91.80
2019-05-03T21:41:55.406Z,91.90
2019-05-03T21:44:31.269Z,92.20
2019-05-03T21:47:01.426Z,92.40
2019-05-03T21:49:40.245Z,92.60
2019-05-03T21:52:08.685Z,92.80
2019-05-03T21:54:37.402Z,93.00
2019-05-03T21:57:05.849Z,93.10
2019-05-03T21:59:35.387Z,93.20
2019-05-03T22:02:05.148Z,93.40
2019-05-03T22:04:35.145Z,93.50
2019-05-03T22:07:05.243Z,93.70
2019-05-03T22:09:36.271Z,93.80
2019-05-03T22:12:05.266Z,93.90
2019-05-03T22:14:35.829Z,94.00
2019-05-03T22:17:18.534Z,94.10
2019-05-03T22:19:48.978Z,94.20
2019-05-03T22:22:34.127Z,94.40
2019-05-03T22:25:04.755Z,94.80
2019-05-03T22:27:40.451Z,95.10
2019-05-03T22:30:09.229Z,96.40
2019-05-03T22:32:37.657Z,98.00
2019-05-03T22:35:08.033Z,99.50
2019-05-03T22:37:36.814Z,99.80
2019-05-03T22:40:06.953Z,99.90
2019-05-03T22:42:35.380Z,99.90
2019-05-03T22:45:05.365Z,99.90
2019-05-03T22:47:35.633Z,99.90
2019-05-03T22:50:05.536Z,99.90
2019-05-03T22:52:35.064Z,99.90
2019-05-03T22:55:07.792Z,99.90
2019-05-03T22:57:36.487Z,99.90
2019-05-03T23:00:09.081Z,99.90
2019-05-03T23:02:37.508Z,99.90
2019-05-03T23:05:06.832Z,99.90
2019-05-03T23:07:37.498Z,99.90
2019-05-03T23:10:06.669Z,99.90
2019-05-03T23:12:35.367Z,99.90
2019-05-03T23:15:06.947Z,99.90
2019-05-03T23:17:35.618Z,99.80
2019-05-03T23:20:11.685Z,99.50
2019-05-03T23:22:40.117Z,99.50
2019-05-03T23:25:09.347Z,99.50
2019-05-03T23:27:37.781Z,99.50
2019-05-03T23:30:06.563Z,99.40
2019-05-03T23:32:35.371Z,99.00
2019-05-03T23:35:05.158Z,99.10
2019-05-03T23:37:34.657Z,98.90
2019-05-03T23:40:05.134Z,99.00
2019-05-03T23:42:35.051Z,99.00
2019-05-03T23:45:05.063Z,99.40
2019-05-03T23:47:41.375Z,98.70
2019-05-03T23:50:11.980Z,99.00
2019-05-03T23:52:40.419Z,99.10
2019-05-03T23:55:25.654Z,98.80
2019-05-03T23:57:55.413Z,98.60
